createdAt,value
2023-12-15T00:00:17.987Z,99407.61
2023-12-15T00:02:46.900Z,99411.37
2023-12-15T00:05:14.549Z,99413.66
2023-12-15T00:07:42.061Z,99417.52
2023-12-15T00:10:09.816Z,99420.71
2023-12-15T00:12:38.620Z,99423.89
2023-12-15T00:15:08.247Z,99430.98
2023-12-15T00:17:36.460Z,99433.92
2023-12-15T00:20:05.561Z,99437.22
2023-12-15T00:22:33.222Z,99436.22
2023-12-15T00:25:04.098Z,99434.98
2023-12-15T00:27:32.302Z,99437.48
2023-12-15T00:30:00.215Z,99442.95
2023-12-15T00:32:29.447Z,99445.79
2023-12-15T00:34:59.478Z,99449.81
2023-12-15T00:37:28.901Z,99457.69
2023-12-15T00:39:56.491Z,99460.11
2023-12-15T00:42:24.206Z,99474.63
2023-12-15T00:44:51.817Z,99480.41
2023-12-15T00:47:19.464Z,99487.24
2023-12-15T00:49:47.249Z,99494.85
2023-12-15T00:52:14.888Z,99497.50
2023-12-15T00:54:42.512Z,99503.44
2023-12-15T00:57:10.080Z,99506.34
2023-12-15T00:59:37.753Z,99507.46
2023-12-15T01:02:06.911Z,99499.88
2023-12-15T01:04:34.684Z,99502.89
2023-12-15T01:07:02.521Z,99502.48
2023-12-15T01:09:30.789Z,99504.35
2023-12-15T01:11:58.394Z,99507.02
2023-12-15T01:14:25.953Z,99510.84
2023-12-15T01:16:53.541Z,99504.00
2023-12-15T01:19:21.165Z,99502.40
2023-12-15T01:21:48.860Z,99501.92
2023-12-15T01:24:16.519Z,99507.20
2023-12-15T01:26:44.001Z,99513.59
2023-12-15T01:29:11.611Z,99520.59
2023-12-15T01:31:39.297Z,99516.63
2023-12-15T01:34:06.763Z,99521.40
2023-12-15T01:36:34.296Z,99525.64
2023-12-15T01:39:01.874Z,99521.16
2023-12-15T01:41:29.398Z,99526.73
2023-12-15T01:43:57.097Z,99529.50
2023-12-15T01:46:24.689Z,99528.20
2023-12-15T01:48:52.261Z,99532.96
2023-12-15T01:51:19.820Z,99535.44
2023-12-15T01:53:47.444Z,99542.69
2023-12-15T01:56:15.400Z,99555.09
2023-12-15T01:58:43.044Z,99563.08
2023-12-15T02:01:10.823Z,99575.59
2023-12-15T02:03:38.562Z,99584.14
2023-12-15T02:06:06.692Z,99592.16
2023-12-15T02:08:34.725Z,99595.83
2023-12-15T02:11:02.359Z,99598.04
2023-12-15T02:13:29.964Z,99604.48
2023-12-15T02:15:57.534Z,99609.89
2023-12-15T02:18:25.101Z,99614.11
2023-12-15T02:20:52.622Z,99621.06
2023-12-15T02:23:20.245Z,99619.65
2023-12-15T02:25:47.798Z,99624.91
2023-12-15T02:28:15.394Z,99636.35
2023-12-15T02:30:43.026Z,99637.84
2023-12-15T02:33:12.774Z,99643.14
2023-12-15T02:35:41.650Z,99653.79
2023-12-15T02:38:09.262Z,99657.83
2023-12-15T02:40:37.122Z,99661.52
2023-12-15T02:43:04.689Z,99668.79
2023-12-15T02:45:32.224Z,99670.70
2023-12-15T02:47:59.983Z,99683.48
2023-12-15T02:50:27.694Z,99698.58
2023-12-15T02:52:55.308Z,99704.77
2023-12-15T02:55:22.888Z,99711.23
2023-12-15T02:57:50.357Z,99720.75
2023-12-15T03:00:17.983Z,99724.56
2023-12-15T03:02:45.432Z,99728.74
2023-12-15T03:05:13.004Z,99732.56
2023-12-15T03:07:40.648Z,99737.41
2023-12-15T03:10:08.772Z,99735.52
2023-12-15T03:12:36.250Z,99732.84
2023-12-15T03:15:03.896Z,99735.40
2023-12-15T03:17:31.715Z,99746.31
2023-12-15T03:19:59.506Z,99746.19
2023-12-15T03:22:27.127Z,99753.39
2023-12-15T03:24:54.668Z,99754.99
2023-12-15T03:27:22.132Z,99764.02
2023-12-15T03:29:49.707Z,99765.26
2023-12-15T03:32:17.382Z,99763.85
2023-12-15T03:34:44.880Z,99769.32
2023-12-15T03:37:12.494Z,99768.86
2023-12-15T03:39:39.953Z,99768.80
2023-12-15T03:42:08.404Z,99764.76
2023-12-15T03:44:37.988Z,99765.91
2023-12-15T03:47:05.645Z,99768.02
2023-12-15T03:49:34.676Z,99759.10
2023-12-15T03:52:02.454Z,99762.14
2023-12-15T03:54:29.917Z,99762.36
2023-12-15T03:56:58.109Z,99756.66
2023-12-15T03:59:25.702Z,99760.26
2023-12-15T04:01:53.300Z,99757.15
2023-12-15T04:04:21.370Z,99759.31
2023-12-15T04:06:49.869Z,99765.74
2023-12-15T04:09:17.375Z,99768.76
2023-12-15T04:11:44.837Z,99775.39
2023-12-15T04:14:12.356Z,99773.88
2023-12-15T04:16:42.900Z,99774.89
2023-12-15T04:19:10.551Z,99788.32
2023-12-15T04:21:38.324Z,99795.40
2023-12-15T04:24:08.480Z,99799.23
2023-12-15T04:26:36.010Z,99797.30
2023-12-15T04:29:15.928Z,99802.59
2023-12-15T04:31:44.452Z,99799.47
2023-12-15T04:34:11.948Z,99811.27
2023-12-15T04:36:40.973Z,99817.27
2023-12-15T04:39:08.896Z,99822.52
2023-12-15T04:41:36.376Z,99826.96
2023-12-15T04:44:03.993Z,99822.63
2023-12-15T04:46:31.930Z,99823.37
2023-12-15T04:49:02.788Z,99824.66
2023-12-15T04:51:30.650Z,99825.38
2023-12-15T04:53:58.095Z,99829.44
2023-12-15T04:56:26.632Z,99839.30
2023-12-15T04:58:54.258Z,99848.19
2023-12-15T05:01:21.811Z,99855.48
2023-12-15T05:03:49.354Z,99857.73
2023-12-15T05:06:18.451Z,99861.17
2023-12-15T05:08:46.619Z,99864.11
2023-12-15T05:11:14.926Z,99868.04
2023-12-15T05:13:43.005Z,99876.27
2023-12-15T05:16:10.439Z,99884.05
2023-12-15T05:18:38.600Z,99892.39
2023-12-15T05:21:06.507Z,99894.75
2023-12-15T05:23:34.037Z,99901.73
2023-12-15T05:26:01.533Z,99904.45
2023-12-15T05:28:29.097Z,99910.41
2023-12-15T05:30:56.657Z,99912.47
2023-12-15T05:33:25.260Z,99915.90
2023-12-15T05:35:52.992Z,99925.20
2023-12-15T05:38:20.492Z,99927.22
2023-12-15T05:40:48.036Z,99936.32
2023-12-15T05:43:15.527Z,99942.16
2023-12-15T05:45:43.054Z,99947.76
2023-12-15T05:48:11.464Z,99956.79
2023-12-15T05:50:39.329Z,99959.23
2023-12-15T05:53:06.893Z,99959.16
2023-12-15T05:55:34.330Z,99966.52
2023-12-15T05:58:02.392Z,99968.29
2023-12-15T06:00:29.991Z,99974.32
2023-12-15T06:02:57.822Z,99971.58
2023-12-15T06:05:25.600Z,99969.86
2023-12-15T06:07:53.478Z,99971.52
2023-12-15T06:10:21.258Z,99978.23
2023-12-15T06:12:48.956Z,99979.23
2023-12-15T06:15:16.858Z,99982.74
2023-12-15T06:17:44.810Z,99985.02
2023-12-15T06:20:17.002Z,99989.17
2023-12-15T06:22:45.166Z,99995.39
2023-12-15T06:25:13.234Z,100001.67
2023-12-15T06:27:41.350Z,100004.38
2023-12-15T06:30:10.138Z,100006.29
2023-12-15T06:32:38.418Z,100007.88
2023-12-15T06:35:07.379Z,100013.86
2023-12-15T06:37:36.090Z,100012.38
2023-12-15T06:40:05.083Z,100020.69
2023-12-15T06:42:33.871Z,100028.28
2023-12-15T06:45:09.100Z,100030.79
2023-12-15T06:47:44.054Z,100025.41
2023-12-15T06:50:12.279Z,100036.42
2023-12-15T06:52:43.267Z,100038.67
2023-12-15T06:55:16.475Z,100041.09
2023-12-15T06:57:44.034Z,100039.79
2023-12-15T07:00:12.388Z,100050.73
2023-12-15T07:02:40.152Z,100055.16
2023-12-15T07:05:08.260Z,100054.80
2023-12-15T07:07:36.476Z,100061.36
2023-12-15T07:10:05.055Z,100061.11
2023-12-15T07:12:32.502Z,100067.83
2023-12-15T07:15:00.031Z,100066.20
2023-12-15T07:17:27.658Z,100062.09
2023-12-15T07:19:55.295Z,100061.63
2023-12-15T07:22:22.813Z,100064.50
2023-12-15T07:24:50.314Z,100065.40
2023-12-15T07:27:17.981Z,100066.52
2023-12-15T07:29:45.587Z,100070.89
2023-12-15T07:32:13.076Z,100071.51
2023-12-15T07:34:40.708Z,100081.34
2023-12-15T07:37:09.560Z,100080.27
2023-12-15T07:39:38.931Z,100082.72
2023-12-15T07:42:06.485Z,100088.91
2023-12-15T07:44:35.343Z,100098.55
2023-12-15T07:47:04.984Z,100102.86
2023-12-15T07:49:35.899Z,100105.59
2023-12-15T07:52:05.720Z,100107.90
2023-12-15T07:54:33.539Z,100115.09
2023-12-15T07:57:02.233Z,100116.05
2023-12-15T07:59:30.217Z,100122.41
2023-12-15T08:01:58.005Z,100124.05
2023-12-15T08:04:28.641Z,100130.41
2023-12-15T08:06:57.219Z,100136.92
2023-12-15T08:09:25.103Z,100140.92
2023-12-15T08:11:52.701Z,100140.44
2023-12-15T08:14:20.375Z,100145.60
2023-12-15T08:16:47.961Z,100153.72
2023-12-15T08:19:15.511Z,100154.40
2023-12-15T08:21:43.582Z,100159.73
2023-12-15T08:24:11.773Z,100168.55
2023-12-15T08:26:39.457Z,100173.23
2023-12-15T08:29:07.116Z,100174.95
2023-12-15T08:31:34.793Z,100178.88
2023-12-15T08:34:02.457Z,100183.60
2023-12-15T08:36:30.779Z,100187.82
2023-12-15T08:38:58.291Z,100192.11
2023-12-15T08:41:25.870Z,100197.06
2023-12-15T08:43:53.407Z,100197.73
2023-12-15T08:46:20.862Z,100196.77
2023-12-15T08:48:50.714Z,100199.11
2023-12-15T08:51:18.987Z,100201.33
2023-12-15T08:53:46.578Z,100199.73
2023-12-15T08:56:14.129Z,100202.17
2023-12-15T08:58:42.937Z,100204.67
2023-12-15T09:01:10.510Z,100208.52
2023-12-15T09:03:38.673Z,100215.69
2023-12-15T09:08:44.781Z,100221.91
2023-12-15T09:11:13.551Z,100228.40
2023-12-15T09:13:41.102Z,100227.80
2023-12-15T09:16:08.712Z,100229.83
2023-12-15T09:18:36.350Z,100229.13
2023-12-15T09:21:04.470Z,100230.88
2023-12-15T09:23:32.041Z,100230.65
2023-12-15T09:26:00.293Z,100231.85
2023-12-15T09:28:30.846Z,100235.94
2023-12-15T09:30:58.477Z,100236.19
2023-12-15T09:33:27.165Z,100240.98
2023-12-15T09:35:55.853Z,100237.57
2023-12-15T09:38:23.473Z,100239.66
2023-12-15T09:40:51.823Z,100240.52
2023-12-15T09:43:20.025Z,100242.15
2023-12-15T09:45:47.563Z,100246.39
2023-12-15T09:48:15.981Z,100249.33
2023-12-15T09:50:46.392Z,100254.23
2023-12-15T09:53:15.608Z,100261.55
2023-12-15T09:55:43.846Z,100268.09
2023-12-15T09:58:11.531Z,100268.52
2023-12-15T10:00:39.779Z,100270.79
2023-12-15T10:03:08.050Z,100273.34
2023-12-15T10:05:36.863Z,100278.27
2023-12-15T10:08:04.755Z,100279.98
2023-12-15T10:10:32.774Z,100279.50
2023-12-15T10:13:01.157Z,100286.77
2023-12-15T10:15:30.496Z,100290.05
2023-12-15T10:18:01.109Z,100285.57
2023-12-15T10:20:29.017Z,100283.48
2023-12-15T10:23:07.713Z,100284.28
2023-12-15T10:25:36.806Z,100282.09
2023-12-15T10:28:07.732Z,100279.70
2023-12-15T10:30:36.928Z,100278.56
2023-12-15T10:33:05.180Z,100278.72
2023-12-15T10:35:33.030Z,100276.82
2023-12-15T10:38:00.594Z,100280.22
2023-12-15T10:40:28.545Z,100283.42
2023-12-15T10:42:57.165Z,100282.48
2023-12-15T10:45:25.287Z,100284.16
2023-12-15T10:47:53.165Z,100285.56
2023-12-15T10:50:20.890Z,100286.45
2023-12-15T10:52:48.420Z,100291.36
2023-12-15T10:55:16.163Z,100297.45
2023-12-15T10:57:43.715Z,100301.33
2023-12-15T11:00:12.176Z,100306.23
2023-12-15T11:02:40.311Z,100312.46
2023-12-15T11:05:10.951Z,100312.55
2023-12-15T11:07:41.568Z,100317.04
2023-12-15T11:10:10.938Z,100314.02
2023-12-15T11:12:39.843Z,100317.07
2023-12-15T11:15:09.954Z,100311.41
2023-12-15T11:17:51.025Z,100317.61
2023-12-15T11:20:22.107Z,100319.95
2023-12-15T11:22:54.134Z,100324.59
2023-12-15T11:25:26.021Z,100327.71
2023-12-15T11:28:10.308Z,100326.13
2023-12-15T11:30:54.103Z,100328.79
2023-12-15T11:33:24.981Z,100330.08
2023-12-15T11:36:13.717Z,100335.32
2023-12-15T11:38:41.394Z,100330.16
2023-12-15T11:41:10.219Z,100330.84
2023-12-15T11:43:37.978Z,100328.25
2023-12-15T11:46:06.379Z,100326.13
2023-12-15T11:48:35.763Z,100329.42
2023-12-15T11:51:08.629Z,100332.63
2023-12-15T11:53:45.534Z,100342.88
2023-12-15T11:56:13.155Z,100347.05
2023-12-15T11:58:41.989Z,100345.60
2023-12-15T12:01:11.241Z,100351.17
2023-12-15T12:03:38.850Z,100351.90
2023-12-15T12:06:06.914Z,100348.80
2023-12-15T12:08:35.037Z,100349.25
2023-12-15T12:11:09.337Z,100358.09
2023-12-15T12:13:41.020Z,100356.10
2023-12-15T12:18:42.001Z,100356.48
2023-12-15T12:21:09.270Z,100361.40
2023-12-15T12:23:43.312Z,100360.84
2023-12-15T12:26:13.659Z,100362.92
2023-12-15T12:28:41.188Z,100368.94
2023-12-15T12:31:08.005Z,100371.52
2023-12-15T12:33:35.006Z,100376.16
2023-12-15T12:36:02.051Z,100375.33
2023-12-15T12:38:30.795Z,100377.92
2023-12-15T12:41:03.447Z,100385.67
2023-12-15T12:43:30.464Z,100391.43
2023-12-15T12:45:57.426Z,100395.86
2023-12-15T12:48:25.450Z,100402.56
2023-12-15T12:50:54.069Z,100409.34
2023-12-15T12:53:21.130Z,100418.39
2023-12-15T12:55:49.048Z,100417.05
2023-12-15T12:58:17.402Z,100417.19
2023-12-15T13:00:44.154Z,100419.60
2023-12-15T13:03:11.283Z,100422.91
2023-12-15T13:05:38.404Z,100424.25
2023-12-15T13:08:05.319Z,100430.17
2023-12-15T13:10:32.316Z,100438.48
2023-12-15T13:12:59.038Z,100440.58
2023-12-15T13:15:26.221Z,100446.59
2023-12-15T13:18:00.059Z,100454.92
2023-12-15T13:20:27.057Z,100460.39
2023-12-15T13:22:54.021Z,100461.27
2023-12-15T13:25:21.140Z,100468.86
2023-12-15T13:27:49.148Z,100477.69
2023-12-15T13:30:15.963Z,100475.98
2023-12-15T13:32:43.159Z,100486.84
2023-12-15T13:35:10.274Z,100493.72
2023-12-15T13:37:37.070Z,100501.94
2023-12-15T13:40:15.077Z,100501.70
2023-12-15T13:42:42.322Z,100498.31
2023-12-15T13:45:10.592Z,100504.81
2023-12-15T13:47:38.124Z,100509.80
2023-12-15T13:50:07.668Z,100510.18
2023-12-15T13:52:38.240Z,100510.84
2023-12-15T13:55:05.663Z,100519.25
2023-12-15T13:57:33.374Z,100529.71
2023-12-15T14:00:00.376Z,100535.34
2023-12-15T14:02:27.277Z,100540.40
2023-12-15T14:04:54.116Z,100547.81
2023-12-15T14:07:21.460Z,100553.10
2023-12-15T14:09:48.419Z,100555.27
2023-12-15T14:12:16.443Z,100559.37
2023-12-15T14:14:44.489Z,100563.55
2023-12-15T14:17:11.623Z,100572.58
2023-12-15T14:19:38.574Z,100575.95
2023-12-15T14:22:07.686Z,100580.45
2023-12-15T14:24:35.102Z,100582.56
2023-12-15T14:27:04.350Z,100577.10
2023-12-15T14:29:32.073Z,100586.95
2023-12-15T14:32:00.582Z,100596.16
2023-12-15T14:34:27.558Z,100597.77
2023-12-15T14:36:56.163Z,100602.10
2023-12-15T14:39:23.647Z,100599.67
2023-12-15T14:41:53.213Z,100601.90
2023-12-15T14:44:24.643Z,100600.33
2023-12-15T14:46:52.566Z,100595.23
2023-12-15T14:49:19.578Z,100600.39
2023-12-15T14:51:47.519Z,100609.44
2023-12-15T14:54:14.465Z,100615.37
2023-12-15T14:56:41.358Z,100616.88
2023-12-15T14:59:08.562Z,100616.05
2023-12-15T15:01:36.472Z,100619.78
2023-12-15T15:04:04.569Z,100621.11
2023-12-15T15:06:35.891Z,100618.15
2023-12-15T15:09:08.157Z,100619.97
2023-12-15T15:11:39.880Z,100627.65
2023-12-15T15:14:07.757Z,100629.17
2023-12-15T15:16:35.746Z,100630.80
2023-12-15T15:19:03.346Z,100632.05
2023-12-15T15:21:31.795Z,100634.98
2023-12-15T15:23:59.394Z,100642.56
2023-12-15T15:26:29.497Z,100648.75
2023-12-15T15:28:57.402Z,100646.44
2023-12-15T15:31:25.422Z,100649.54
2023-12-15T15:33:54.553Z,100649.83
2023-12-15T15:36:28.124Z,100649.42
2023-12-15T15:38:57.447Z,100645.05
2023-12-15T15:41:25.790Z,100652.00
2023-12-15T15:44:02.106Z,100656.35
2023-12-15T15:46:33.912Z,100655.09
2023-12-15T15:49:00.920Z,100654.63
2023-12-15T15:51:27.843Z,100652.86
2023-12-15T15:53:55.427Z,100659.02
2023-12-15T15:56:22.543Z,100662.58
2023-12-15T15:58:49.580Z,100670.84
2023-12-15T16:01:32.178Z,100675.95
2023-12-15T16:04:05.168Z,100682.77
2023-12-15T16:06:32.844Z,100690.92
2023-12-15T16:09:00.482Z,100689.67
2023-12-15T16:11:29.291Z,100690.48
2023-12-15T16:14:02.173Z,100690.81
2023-12-15T16:16:32.831Z,100688.63
2023-12-15T16:19:00.056Z,100694.23
2023-12-15T16:21:27.988Z,100694.80
2023-12-15T16:23:55.418Z,100700.13
2023-12-15T16:26:22.829Z,100709.94
2023-12-15T16:28:50.078Z,100713.65
2023-12-15T16:31:17.287Z,100716.13
2023-12-15T16:33:44.591Z,100717.06
2023-12-15T16:36:22.433Z,100718.62
2023-12-15T16:38:49.424Z,100723.55
2023-12-15T16:41:26.061Z,100729.45
2023-12-15T16:43:54.106Z,100732.37
2023-12-15T16:46:21.124Z,100736.17
2023-12-15T16:48:55.756Z,100733.30
2023-12-15T16:51:26.487Z,100736.20
2023-12-15T16:53:53.636Z,100740.34
2023-12-15T16:56:20.614Z,100742.90
2023-12-15T16:58:48.353Z,100745.80
2023-12-15T17:01:15.440Z,100750.23
2023-12-15T17:03:44.834Z,100751.86
2023-12-15T17:06:14.905Z,100753.84
2023-12-15T17:08:49.019Z,100756.19
2023-12-15T17:11:15.823Z,100754.73
2023-12-15T17:13:42.769Z,100751.38
2023-12-15T17:16:15.352Z,100748.67
2023-12-15T17:18:47.265Z,100753.02
2023-12-15T17:21:14.308Z,100760.49
2023-12-15T17:23:41.631Z,100767.93
2023-12-15T17:26:09.299Z,100777.24
2023-12-15T17:28:36.190Z,100785.39
2023-12-15T17:31:05.846Z,100792.39
2023-12-15T17:33:32.780Z,100797.23
2023-12-15T17:36:00.145Z,100804.13
2023-12-15T17:38:27.735Z,100809.16
2023-12-15T17:40:54.588Z,100810.42
2023-12-15T17:43:23.638Z,100813.93
2023-12-15T17:45:53.821Z,100814.08
2023-12-15T17:48:21.874Z,100812.82
2023-12-15T17:50:49.268Z,100817.71
2023-12-15T17:53:16.338Z,100821.41
2023-12-15T17:55:43.438Z,100827.47
2023-12-15T17:58:12.241Z,100828.34
2023-12-15T18:00:42.550Z,100836.61
2023-12-15T18:03:10.392Z,100841.19
2023-12-15T18:05:38.145Z,100834.66
2023-12-15T18:08:05.439Z,100833.39
2023-12-15T18:10:33.548Z,100826.84
2023-12-15T18:13:00.388Z,100833.08
2023-12-15T18:15:28.674Z,100833.35
2023-12-15T18:17:55.487Z,100841.42
2023-12-15T18:20:22.662Z,100842.48
2023-12-15T18:22:52.425Z,100841.84
2023-12-15T18:25:19.554Z,100838.36
2023-12-15T18:27:46.581Z,100847.81
2023-12-15T18:30:15.655Z,100851.23
2023-12-15T18:32:43.311Z,100859.08
2023-12-15T18:35:10.141Z,100851.88
2023-12-15T18:37:38.534Z,100853.38
2023-12-15T18:40:07.946Z,100854.03
2023-12-15T18:42:35.467Z,100862.53
2023-12-15T18:45:03.502Z,100874.83
2023-12-15T18:47:32.224Z,100884.61
2023-12-15T18:50:03.499Z,100883.37
2023-12-15T18:52:31.768Z,100889.30
2023-12-15T18:54:58.619Z,100890.95
2023-12-15T18:57:25.861Z,100895.86
2023-12-15T18:59:53.435Z,100893.96
2023-12-15T19:02:20.530Z,100892.20
2023-12-15T19:04:49.313Z,100895.80
2023-12-15T19:07:17.212Z,100905.23
2023-12-15T19:09:44.391Z,100912.34
2023-12-15T19:12:11.418Z,100914.44
2023-12-15T19:14:39.174Z,100911.14
2023-12-15T19:17:06.072Z,100909.68
2023-12-15T19:19:33.129Z,100911.77
2023-12-15T19:22:00.777Z,100916.32
2023-12-15T19:24:27.735Z,100914.90
2023-12-15T19:26:54.683Z,100914.31
2023-12-15T19:29:21.581Z,100922.90
2023-12-15T19:31:48.489Z,100927.81
2023-12-15T19:34:15.911Z,100933.69
2023-12-15T19:36:42.876Z,100935.06
2023-12-15T19:39:10.756Z,100936.47
2023-12-15T19:41:43.730Z,100937.34
2023-12-15T19:44:10.619Z,100939.51
2023-12-15T19:46:38.399Z,100937.96
2023-12-15T19:49:06.360Z,100935.77
2023-12-15T19:51:33.261Z,100937.64
2023-12-15T19:54:05.695Z,100943.19
2023-12-15T19:56:41.463Z,100948.85
2023-12-15T19:59:11.037Z,100943.62
2023-12-15T20:01:37.956Z,100941.52
2023-12-15T20:04:06.342Z,100944.16
2023-12-15T20:06:34.088Z,100941.02
2023-12-15T20:09:04.916Z,100945.45
2023-12-15T20:11:37.166Z,100949.04
2023-12-15T20:14:07.528Z,100943.49
2023-12-15T20:16:35.213Z,100940.83
2023-12-15T20:19:02.952Z,100935.13
2023-12-15T20:21:30.873Z,100934.27
2023-12-15T20:23:58.463Z,100932.94
2023-12-15T20:26:28.529Z,100928.97
2023-12-15T20:28:57.075Z,100929.20
2023-12-15T20:31:25.338Z,100922.56
2023-12-15T20:33:52.436Z,100919.42
2023-12-15T20:36:20.009Z,100924.22
2023-12-15T20:38:47.730Z,100928.81
2023-12-15T20:41:19.335Z,100929.15
2023-12-15T20:43:46.916Z,100936.12
2023-12-15T20:46:14.293Z,100930.92
2023-12-15T20:48:41.834Z,100933.87
2023-12-15T20:51:13.234Z,100933.29
2023-12-15T20:53:40.310Z,100941.90
2023-12-15T20:56:08.013Z,100941.66
2023-12-15T20:58:37.389Z,100945.02
2023-12-15T21:01:04.222Z,100946.31
2023-12-15T21:03:32.003Z,100948.36
2023-12-15T21:05:58.674Z,100949.27
2023-12-15T21:08:25.411Z,100945.86
2023-12-15T21:10:52.749Z,100950.53
2023-12-15T21:13:19.863Z,100952.86
2023-12-15T21:15:47.691Z,100948.35
2023-12-15T21:18:16.508Z,100949.06
2023-12-15T21:20:43.418Z,100954.27
2023-12-15T21:23:10.143Z,100954.30
2023-12-15T21:25:36.925Z,100955.15
2023-12-15T21:28:04.479Z,100956.76
2023-12-15T21:30:32.674Z,100961.92
2023-12-15T21:32:59.574Z,100960.94
2023-12-15T21:35:30.523Z,100960.85
2023-12-15T21:37:59.210Z,100963.63
2023-12-15T21:40:26.292Z,100966.77
2023-12-15T21:42:53.896Z,100963.53
2023-12-15T21:45:20.616Z,100961.88
2023-12-15T21:47:47.928Z,100962.49
2023-12-15T21:50:15.049Z,100961.44
2023-12-15T21:52:41.968Z,100957.04
2023-12-15T21:55:09.814Z,100959.45
2023-12-15T21:57:37.798Z,100960.48
2023-12-15T22:00:06.307Z,100958.86
2023-12-15T22:02:33.170Z,100959.41
2023-12-15T22:04:59.741Z,100964.80
2023-12-15T22:07:26.932Z,100966.71
2023-12-15T22:09:53.665Z,100961.39
2023-12-15T22:12:21.089Z,100959.57
2023-12-15T22:14:47.926Z,100956.09
2023-12-15T22:17:14.859Z,100959.89
2023-12-15T22:19:41.902Z,100958.17
2023-12-15T22:22:08.986Z,100958.64
2023-12-15T22:24:36.028Z,100963.84
2023-12-15T22:27:03.146Z,100965.26
2023-12-15T22:29:31.059Z,100968.64
2023-12-15T22:31:58.086Z,100966.91
2023-12-15T22:34:24.940Z,100971.74
2023-12-15T22:36:51.795Z,100971.29
2023-12-15T22:39:18.630Z,100972.38
2023-12-15T22:41:45.728Z,100970.73
2023-12-15T22:44:13.079Z,100973.64
2023-12-15T22:46:43.489Z,100980.87
2023-12-15T22:49:10.344Z,100984.09
2023-12-15T22:51:43.548Z,100988.25
2023-12-15T22:54:12.215Z,100983.32
2023-12-15T22:56:42.651Z,100982.95
2023-12-15T22:59:12.204Z,100990.59
2023-12-15T23:01:39.676Z,100990.92
2023-12-15T23:04:07.152Z,100994.09
2023-12-15T23:06:34.077Z,100989.52
2023-12-15T23:09:00.888Z,100989.25
2023-12-15T23:11:27.456Z,100986.70
2023-12-15T23:13:54.079Z,100990.13
2023-12-15T23:16:20.857Z,100997.20
2023-12-15T23:18:47.855Z,100997.65
2023-12-15T23:21:23.331Z,100996.23
2023-12-15T23:23:53.467Z,101006.16
2023-12-15T23:26:20.231Z,101006.10
2023-12-15T23:28:47.640Z,101009.99
2023-12-15T23:31:14.553Z,101013.89
2023-12-15T23:33:41.351Z,101006.36
2023-12-15T23:36:12.688Z,101007.48
2023-12-15T23:38:40.127Z,101010.30
2023-12-15T23:41:07.418Z,101012.92
2023-12-15T23:43:34.383Z,101015.66
2023-12-15T23:46:01.154Z,101018.16
2023-12-15T23:48:27.933Z,101021.23
2023-12-15T23:50:54.801Z,101023.04
2023-12-15T23:53:21.420Z,101027.09
2023-12-15T23:55:47.989Z,101036.79
2023-12-15T23:58:14.729Z,101034.89
